createdAt,value
2019-05-13T00:02:23.978Z,99660.55
2019-05-13T00:04:56.052Z,99662.05
2019-05-13T00:07:28.017Z,99659.22
2019-05-13T00:09:59.959Z,99664.81
2019-05-13T00:12:31.944Z,99661.05
2019-05-13T00:15:04.225Z,99663.48
2019-05-13T00:17:36.198Z,99651.63
2019-05-13T00:20:08.127Z,99653.73
2019-05-13T00:22:40.077Z,99652.56
2019-05-13T00:25:14.292Z,99660.42
2019-05-13T00:27:45.910Z,99657.82
2019-05-13T00:30:17.860Z,99659.98
2019-05-13T00:32:49.845Z,99657.05
2019-05-13T00:35:23.334Z,99658.93
2019-05-13T00:37:55.439Z,99659.90
2019-05-13T00:40:27.369Z,99665.50
2019-05-13T00:42:59.358Z,99654.59
2019-05-13T00:45:33.638Z,99657.58
2019-05-13T00:48:05.184Z,99659.55
2019-05-13T00:50:37.117Z,99658.00
2019-05-13T00:53:09.125Z,99652.90
2019-05-13T00:55:41.570Z,99654.23
2019-05-13T00:58:14.116Z,99653.79
2019-05-13T01:00:46.278Z,99644.42
2019-05-13T01:03:18.217Z,99648.19
2019-05-13T01:05:50.161Z,99650.16
2019-05-13T01:08:23.667Z,99646.66
2019-05-13T01:10:55.721Z,99648.89
2019-05-13T01:13:27.686Z,99653.81
2019-05-13T01:15:59.645Z,99650.02
2019-05-13T01:18:33.828Z,99642.41
2019-05-13T01:21:05.497Z,99641.93
2019-05-13T01:23:37.463Z,99644.64
2019-05-13T01:26:09.416Z,99638.51
2019-05-13T01:28:43.489Z,99640.81
2019-05-13T01:31:15.231Z,99639.09
2019-05-13T01:33:47.197Z,99632.08
2019-05-13T01:36:19.157Z,99641.30
2019-05-13T01:38:51.175Z,99636.13
2019-05-13T01:41:24.015Z,99643.33
2019-05-13T01:43:56.205Z,99650.37
2019-05-13T01:46:28.152Z,99659.81
2019-05-13T01:49:00.122Z,99652.08
2019-05-13T01:51:33.461Z,99653.06
2019-05-13T01:54:05.474Z,99653.62
2019-05-13T01:56:37.419Z,99661.00
2019-05-13T01:59:09.373Z,99663.33
2019-05-13T02:01:44.054Z,99658.76
2019-05-13T02:04:15.230Z,99664.01
2019-05-13T02:06:47.176Z,99666.09
2019-05-13T02:09:19.189Z,99661.98
2019-05-13T02:11:53.684Z,99665.96
2019-05-13T02:14:25.031Z,99663.77
2019-05-13T02:16:56.957Z,99660.58
2019-05-13T02:19:28.921Z,99659.30
2019-05-13T02:22:00.868Z,99656.59
2019-05-13T02:24:34.189Z,99661.59
2019-05-13T02:27:06.389Z,99668.70
2019-05-13T02:29:38.381Z,99674.58
2019-05-13T02:32:13.316Z,99675.25
2019-05-13T02:34:44.208Z,99677.98
2019-05-13T02:37:16.191Z,99684.22
2019-05-13T02:39:48.160Z,99683.31
2019-05-13T02:42:22.875Z,99690.45
2019-05-13T02:44:54.034Z,99688.13
2019-05-13T02:47:26.011Z,99689.77
2019-05-13T02:50:00.727Z,99683.70
2019-05-13T02:52:33.422Z,99691.28
2019-05-13T02:55:06.196Z,99684.31
2019-05-13T02:57:38.172Z,99683.19
2019-05-13T03:00:12.962Z,99692.88
2019-05-13T03:02:44.336Z,99687.48
2019-05-13T03:05:16.801Z,99686.08
2019-05-13T03:07:48.746Z,99681.44
2019-05-13T03:10:22.419Z,99684.94
2019-05-13T03:12:54.565Z,99682.81
2019-05-13T03:15:28.449Z,99689.81
2019-05-13T03:18:04.583Z,99698.60
2019-05-13T03:20:36.540Z,99698.60
2019-05-13T03:23:08.505Z,99702.62
2019-05-13T03:25:42.959Z,99702.66
2019-05-13T03:28:14.289Z,99703.05
2019-05-13T03:30:46.606Z,99701.63
2019-05-13T03:33:21.949Z,99705.97
2019-05-13T03:35:56.015Z,99703.63
2019-05-13T03:38:27.091Z,99709.17
2019-05-13T03:41:03.084Z,99708.34
2019-05-13T03:43:36.635Z,99709.55
2019-05-13T03:46:12.206Z,99708.28
2019-05-13T03:48:45.192Z,99706.09
2019-05-13T03:51:17.150Z,99710.80
2019-05-13T03:53:49.152Z,99717.58
2019-05-13T03:56:23.570Z,99724.41
2019-05-13T03:58:55.112Z,99727.72
2019-05-13T04:01:27.049Z,99725.25
2019-05-13T04:03:59.025Z,99722.87
2019-05-13T04:06:32.391Z,99723.98
2019-05-13T04:09:20.862Z,99733.04
2019-05-13T04:11:41.578Z,99733.17
2019-05-13T04:14:13.150Z,99730.00
2019-05-13T04:16:45.088Z,99735.91
2019-05-13T04:19:17.067Z,99741.69
2019-05-13T04:21:49.296Z,99745.66
2019-05-13T04:24:22.968Z,99743.44
2019-05-13T04:26:55.146Z,99743.29
2019-05-13T04:29:27.114Z,99752.75
2019-05-13T04:32:01.995Z,99751.80
2019-05-13T04:34:33.872Z,99750.97
2019-05-13T04:37:06.195Z,99757.06
2019-05-13T04:39:47.634Z,99744.94
2019-05-13T04:42:12.469Z,99741.57
2019-05-13T04:44:44.595Z,99745.27
2019-05-13T04:47:16.544Z,99741.39
2019-05-13T04:49:48.501Z,99742.90
2019-05-13T04:52:22.314Z,99739.66
2019-05-13T04:54:54.376Z,99745.89
2019-05-13T04:57:26.330Z,99746.80
2019-05-13T04:59:58.315Z,99755.09
2019-05-13T05:03:22.758Z,99747.36
2019-05-13T05:06:07.488Z,99749.43
2019-05-13T05:09:05.560Z,99751.26
2019-05-13T05:12:33.819Z,99749.41
2019-05-13T05:15:32.903Z,99744.13
2019-05-13T05:18:35.967Z,99746.12
2019-05-13T05:21:15.968Z,99740.50
2019-05-13T05:24:44.755Z,99746.45
2019-05-13T05:27:58.106Z,99743.58
2019-05-13T05:31:28.917Z,99743.89
2019-05-13T05:34:21.793Z,99741.17
2019-05-13T05:37:33.828Z,99741.03
2019-05-13T05:40:06.024Z,99735.30
2019-05-13T05:42:41.275Z,99738.73
2019-05-13T05:45:16.938Z,99735.56
2019-05-13T05:47:51.194Z,99737.44
2019-05-13T05:50:23.176Z,99742.22
2019-05-13T05:52:55.624Z,99742.40
2019-05-13T05:55:29.227Z,99742.40
2019-05-13T05:58:02.005Z,99733.41
2019-05-13T06:00:36.437Z,99728.48
2019-05-13T06:03:08.371Z,99732.05
2019-05-13T06:05:41.900Z,99737.23
2019-05-13T06:08:17.480Z,99740.40
2019-05-13T06:10:52.917Z,99742.76
2019-05-13T06:13:22.112Z,99741.42
2019-05-13T06:15:54.088Z,99727.63
2019-05-13T06:18:26.119Z,99730.34
2019-05-13T06:20:58.105Z,99728.67
2019-05-13T06:23:31.261Z,99734.08
2019-05-13T06:26:03.471Z,99727.42
2019-05-13T06:28:47.515Z,99733.89
2019-05-13T06:31:21.570Z,99726.42
2019-05-13T06:33:53.392Z,99731.00
2019-05-13T06:36:25.762Z,99735.48
2019-05-13T06:38:57.721Z,99733.89
2019-05-13T06:41:32.182Z,99733.10
2019-05-13T06:44:03.626Z,99735.89
2019-05-13T06:46:35.593Z,99727.20
2019-05-13T06:49:07.554Z,99726.52
2019-05-13T06:51:41.761Z,99729.83
2019-05-13T06:54:13.425Z,99722.16
2019-05-13T06:56:45.402Z,99709.08
2019-05-13T06:59:17.390Z,99723.05
2019-05-13T07:01:51.387Z,99728.70
2019-05-13T07:04:23.263Z,99724.17
2019-05-13T07:07:08.731Z,99720.41
2019-05-13T07:09:32.003Z,99718.21
2019-05-13T07:12:03.636Z,99722.33
2019-05-13T07:14:35.819Z,99715.16
2019-05-13T07:17:07.769Z,99716.83
2019-05-13T07:19:41.502Z,99713.47
2019-05-13T07:22:13.707Z,99708.67
2019-05-13T07:24:45.741Z,99706.02
2019-05-13T07:27:17.726Z,99711.81
2019-05-13T07:29:51.489Z,99724.20
2019-05-13T07:32:23.588Z,99718.55
2019-05-13T07:34:55.572Z,99716.19
2019-05-13T07:37:27.941Z,99737.70
2019-05-13T07:40:02.565Z,99723.34
2019-05-13T07:42:33.880Z,99717.23
2019-05-13T07:45:06.256Z,99726.41
2019-05-13T07:47:38.205Z,99713.35
2019-05-13T07:50:12.612Z,99709.41
2019-05-13T07:52:44.102Z,99716.42
2019-05-13T07:55:16.091Z,99705.72
2019-05-13T07:57:48.051Z,99708.20
2019-05-13T08:00:21.866Z,99709.56
2019-05-13T08:02:53.799Z,99701.51
2019-05-13T08:05:25.768Z,99701.39
2019-05-13T08:07:57.742Z,99697.02
2019-05-13T08:10:31.909Z,99704.67
2019-05-13T08:13:03.638Z,99700.38
2019-05-13T08:15:35.694Z,99700.62
2019-05-13T08:18:07.723Z,99704.75
2019-05-13T08:20:42.029Z,99706.63
2019-05-13T08:23:13.611Z,99705.48
2019-05-13T08:25:45.587Z,99699.58
2019-05-13T08:28:17.558Z,99704.74
2019-05-13T08:30:51.671Z,99693.38
2019-05-13T08:33:23.470Z,99697.77
2019-05-13T08:35:58.747Z,99699.50
2019-05-13T08:38:31.703Z,99701.50
2019-05-13T08:41:03.242Z,99706.97
2019-05-13T08:43:35.203Z,99695.55
2019-05-13T08:46:07.304Z,99691.76
2019-05-13T08:48:39.271Z,99682.77
2019-05-13T08:51:11.717Z,99684.64
2019-05-13T08:53:43.983Z,99687.81
2019-05-13T08:56:16.047Z,99678.45
2019-05-13T08:58:47.994Z,99676.00
2019-05-13T09:01:22.522Z,99677.98
2019-05-13T09:03:53.898Z,99673.55
2019-05-13T09:06:25.929Z,99683.28
2019-05-13T09:08:57.943Z,99684.92
2019-05-13T09:11:31.484Z,99678.91
2019-05-13T09:14:03.969Z,99681.58
2019-05-13T09:16:35.973Z,99684.70
2019-05-13T09:19:07.975Z,99676.45
2019-05-13T09:21:42.276Z,99685.34
2019-05-13T09:24:24.406Z,99687.35
2019-05-13T09:26:47.784Z,99691.98
2019-05-13T09:29:22.401Z,99687.95
2019-05-13T09:31:53.751Z,99687.31
2019-05-13T09:34:25.774Z,99687.72
2019-05-13T09:36:57.740Z,99679.83
2019-05-13T09:39:32.065Z,99688.41
2019-05-13T09:42:03.614Z,99688.22
2019-05-13T09:44:35.561Z,99674.78
2019-05-13T09:47:07.535Z,99686.95
2019-05-13T09:49:41.867Z,99675.63
2019-05-13T09:52:13.436Z,99677.03
2019-05-13T09:54:45.403Z,99671.48
2019-05-13T09:57:17.468Z,99673.77
2019-05-13T09:59:49.411Z,99661.23
2019-05-13T10:02:21.563Z,99664.50
2019-05-13T10:04:53.496Z,99687.75
2019-05-13T10:07:25.491Z,99674.16
2019-05-13T10:09:57.454Z,99674.13
2019-05-13T10:12:31.915Z,99671.19
2019-05-13T10:15:03.835Z,99681.02
2019-05-13T10:17:35.843Z,99679.69
2019-05-13T10:20:07.857Z,99677.05
2019-05-13T10:22:41.724Z,99676.30
2019-05-13T10:25:16.656Z,99679.11
2019-05-13T10:27:48.610Z,99672.38
2019-05-13T10:30:21.775Z,99680.09
2019-05-13T10:32:53.871Z,99670.26
2019-05-13T10:35:26.149Z,99671.39
2019-05-13T10:37:58.154Z,99671.32
2019-05-13T10:40:32.737Z,99664.12
2019-05-13T10:43:04.048Z,99669.80
2019-05-13T10:45:36.431Z,99668.09
2019-05-13T10:48:10.461Z,99670.59
2019-05-13T10:50:42.418Z,99661.55
2019-05-13T10:53:14.378Z,99650.15
2019-05-13T10:55:46.418Z,99656.40
2019-05-13T10:58:18.390Z,99659.66
2019-05-13T11:00:53.547Z,99654.99
2019-05-13T11:03:25.903Z,99653.13
2019-05-13T11:05:57.902Z,99659.47
2019-05-13T11:08:32.497Z,99656.91
2019-05-13T11:11:03.745Z,99658.89
2019-05-13T11:13:52.110Z,99660.76
2019-05-13T11:16:12.169Z,99653.82
2019-05-13T11:18:43.682Z,99653.13
2019-05-13T11:21:15.760Z,99641.10
2019-05-13T11:23:47.762Z,99643.73
2019-05-13T11:26:21.954Z,99650.39
2019-05-13T11:28:53.890Z,99651.36
2019-05-13T11:31:25.914Z,99652.19
2019-05-13T11:33:57.879Z,99654.42
2019-05-13T11:36:32.614Z,99647.17
2019-05-13T11:39:05.991Z,99650.94
2019-05-13T11:41:37.985Z,99648.36
2019-05-13T11:44:16.174Z,99646.27
2019-05-13T11:46:43.911Z,99634.34
2019-05-13T11:49:15.886Z,99648.80
2019-05-13T11:51:48.181Z,99636.08
2019-05-13T11:54:22.386Z,99633.39
2019-05-13T11:57:01.684Z,99637.58
2019-05-13T11:59:28.035Z,99635.27
2019-05-13T12:02:03.962Z,99631.18
2019-05-13T12:04:34.877Z,99629.89
2019-05-13T12:07:07.103Z,99620.88
2019-05-13T12:09:39.093Z,99621.75
2019-05-13T12:12:13.213Z,99625.45
2019-05-13T12:15:16.218Z,99620.58
2019-05-13T12:17:18.871Z,99621.09
2019-05-13T12:19:53.989Z,99612.72
2019-05-13T12:22:24.707Z,99609.42
2019-05-13T12:24:56.690Z,99605.56
2019-05-13T12:27:31.580Z,99605.04
2019-05-13T12:30:03.274Z,99600.02
2019-05-13T12:32:35.352Z,99602.05
2019-05-13T12:35:07.302Z,99605.42
2019-05-13T12:37:41.911Z,99612.64
2019-05-13T12:40:13.451Z,99596.69
2019-05-13T12:42:47.253Z,99602.34
2019-05-13T12:45:22.243Z,99590.03
2019-05-13T12:47:53.255Z,99598.67
2019-05-13T12:50:25.642Z,99600.72
2019-05-13T12:52:57.666Z,99597.30
2019-05-13T12:55:32.842Z,99598.65
2019-05-13T12:58:03.578Z,99601.12
2019-05-13T13:00:35.581Z,99597.61
2019-05-13T13:03:07.546Z,99594.70
2019-05-13T13:05:42.914Z,99583.66
2019-05-13T13:08:24.675Z,99586.23
2019-05-13T13:10:47.280Z,99581.86
2019-05-13T13:13:26.819Z,99587.02
2019-05-13T13:15:53.527Z,99584.25
2019-05-13T13:18:25.498Z,99571.53
2019-05-13T13:21:05.008Z,99578.59
2019-05-13T13:23:34.007Z,99578.88
2019-05-13T13:26:13.966Z,99584.58
2019-05-13T13:28:43.143Z,99580.23
2019-05-13T13:31:13.316Z,99578.92
2019-05-13T13:33:46.334Z,99569.58
2019-05-13T13:36:18.670Z,99570.81
2019-05-13T13:38:56.194Z,99574.47
2019-05-13T13:41:27.543Z,99557.56
2019-05-13T13:44:04.718Z,99570.75
2019-05-13T13:46:42.456Z,99565.87
2019-05-13T13:49:07.322Z,99559.54
2019-05-13T13:51:39.293Z,99560.13
2019-05-13T13:54:11.287Z,99551.23
2019-05-13T13:56:44.701Z,99555.86
2019-05-13T13:59:16.984Z,99554.46
2019-05-13T14:01:54.514Z,99568.17
2019-05-13T14:04:22.894Z,99560.49
2019-05-13T14:09:28.785Z,99553.38
2019-05-13T14:12:02.017Z,99565.30
2019-05-13T14:14:34.272Z,99555.48
2019-05-13T14:17:06.272Z,99556.38
2019-05-13T14:19:38.262Z,99554.52
2019-05-13T14:22:12.554Z,99546.63
2019-05-13T14:24:44.187Z,99536.05
2019-05-13T14:27:16.227Z,99535.67
2019-05-13T14:29:49.405Z,99532.62
2019-05-13T14:32:22.530Z,99534.74
2019-05-13T14:34:54.688Z,99543.42
2019-05-13T14:37:27.091Z,99542.37
2019-05-13T14:39:59.075Z,99542.35
2019-05-13T14:42:32.210Z,99544.31
2019-05-13T14:45:04.420Z,99532.51
2019-05-13T14:47:36.381Z,99535.05
2019-05-13T14:50:08.997Z,99533.84
2019-05-13T14:52:41.674Z,99532.88
2019-05-13T14:55:13.899Z,99527.27
2019-05-13T14:57:45.877Z,99525.28
2019-05-13T15:00:17.848Z,99519.46
2019-05-13T15:02:51.834Z,99513.55
2019-05-13T15:05:23.724Z,99510.91
2019-05-13T15:07:55.709Z,99512.12
2019-05-13T15:10:27.684Z,99523.66
2019-05-13T15:13:02.939Z,99516.47
2019-05-13T15:15:33.910Z,99517.70
2019-05-13T15:18:05.882Z,99516.94
2019-05-13T15:20:37.849Z,99506.63
2019-05-13T15:23:11.963Z,99503.92
2019-05-13T15:25:43.700Z,99510.78
2019-05-13T15:28:15.700Z,99505.74
2019-05-13T15:30:47.670Z,99507.06
2019-05-13T15:33:21.524Z,99498.70
2019-05-13T15:35:53.590Z,99504.67
2019-05-13T15:38:25.615Z,99505.86
2019-05-13T15:40:57.702Z,99486.88
2019-05-13T15:43:31.839Z,99490.04
2019-05-13T15:46:03.542Z,99493.95
2019-05-13T15:48:35.883Z,99493.36
2019-05-13T15:51:07.868Z,99486.35
2019-05-13T15:53:39.926Z,99484.66
2019-05-13T15:56:12.583Z,99491.80
2019-05-13T15:58:44.900Z,99498.52
2019-05-13T16:01:17.033Z,99495.53
2019-05-13T16:03:49.027Z,99489.06
2019-05-13T16:06:21.032Z,99483.69
2019-05-13T16:08:53.055Z,99492.31
2019-05-13T16:11:25.342Z,99478.28
2019-05-13T16:13:57.358Z,99485.32
2019-05-13T16:16:31.912Z,99483.55
2019-05-13T16:19:03.675Z,99485.80
2019-05-13T16:21:35.689Z,99489.81
2019-05-13T16:24:07.948Z,99484.17
2019-05-13T16:26:42.396Z,99488.47
2019-05-13T16:29:13.931Z,99481.67
2019-05-13T16:31:45.965Z,99491.03
2019-05-13T16:34:18.052Z,99487.53
2019-05-13T16:36:52.822Z,99487.75
2019-05-13T16:39:23.963Z,99486.50
2019-05-13T16:41:55.981Z,99480.89
2019-05-13T16:44:27.987Z,99490.89
2019-05-13T16:47:01.510Z,99491.47
2019-05-13T16:49:33.778Z,99490.39
2019-05-13T16:52:05.792Z,99496.02
2019-05-13T16:54:37.867Z,99505.45
2019-05-13T16:57:09.900Z,99509.72
2019-05-13T16:59:41.907Z,99509.72
2019-05-13T17:02:13.919Z,99509.90
2019-05-13T17:04:45.937Z,99512.19
2019-05-13T17:07:17.959Z,99511.59
2019-05-13T17:09:51.942Z,99514.53
2019-05-13T17:12:23.909Z,99504.84
2019-05-13T17:14:55.969Z,99515.83
2019-05-13T17:17:27.992Z,99509.10
2019-05-13T17:20:02.223Z,99511.27
2019-05-13T17:22:33.930Z,99508.53
2019-05-13T17:25:06.457Z,99513.36
2019-05-13T17:27:38.453Z,99510.98
2019-05-13T17:30:11.602Z,99510.19
2019-05-13T17:32:43.789Z,99510.39
2019-05-13T17:35:15.845Z,99509.47
2019-05-13T17:37:47.948Z,99517.34
2019-05-13T17:40:22.282Z,99512.07
2019-05-13T17:42:53.891Z,99511.56
2019-05-13T17:45:26.020Z,99510.76
2019-05-13T17:47:58.059Z,99515.91
2019-05-13T17:50:31.486Z,99504.80
2019-05-13T17:53:03.661Z,99506.48
2019-05-13T17:55:35.808Z,99505.92
2019-05-13T17:58:07.842Z,99508.38
2019-05-13T18:00:41.512Z,99515.58
2019-05-13T18:03:13.739Z,99511.31
2019-05-13T18:05:45.780Z,99515.56
2019-05-13T18:08:17.837Z,99508.52
2019-05-13T18:10:51.424Z,99506.50
2019-05-13T18:13:23.685Z,99507.13
2019-05-13T18:15:55.768Z,99507.90
2019-05-13T18:18:40.513Z,99510.33
2019-05-13T18:21:01.754Z,99513.70
2019-05-13T18:23:33.779Z,99515.67
2019-05-13T18:26:05.748Z,99511.67
2019-05-13T18:28:37.829Z,99516.39
2019-05-13T18:31:12.089Z,99517.13
2019-05-13T18:33:43.806Z,99514.22
2019-05-13T18:36:15.832Z,99511.20
2019-05-13T18:38:47.849Z,99522.34
2019-05-13T18:41:21.379Z,99516.89
2019-05-13T18:43:55.053Z,99514.62
2019-05-13T18:46:27.164Z,99514.58
2019-05-13T18:49:02.005Z,99515.79
2019-05-13T18:51:33.167Z,99510.92
2019-05-13T18:54:05.214Z,99520.05
2019-05-13T18:56:37.192Z,99519.66
2019-05-13T18:59:09.208Z,99520.32
2019-05-13T19:01:41.216Z,99522.89
2019-05-13T19:04:13.343Z,99519.83
2019-05-13T19:06:45.372Z,99522.06
2019-05-13T19:09:17.485Z,99532.72
2019-05-13T19:11:51.493Z,99530.19
2019-05-13T19:14:23.441Z,99527.00
2019-05-13T19:16:55.623Z,99534.51
2019-05-13T19:19:27.650Z,99536.00
2019-05-13T19:22:01.931Z,99533.04
2019-05-13T19:24:33.565Z,99539.98
2019-05-13T19:27:05.550Z,99546.95
2019-05-13T19:29:37.629Z,99543.95
2019-05-13T19:32:09.641Z,99547.56
2019-05-13T19:34:42.346Z,99550.81
2019-05-13T19:37:14.690Z,99541.47
2019-05-13T19:39:46.743Z,99548.03
2019-05-13T19:42:18.783Z,99556.22
2019-05-13T19:44:51.133Z,99551.04
2019-05-13T19:47:23.289Z,99557.52
2019-05-13T19:49:55.449Z,99555.22
2019-05-13T19:52:27.566Z,99558.03
2019-05-13T19:55:01.786Z,99556.41
2019-05-13T19:57:33.730Z,99548.61
2019-05-13T20:00:10.005Z,99550.30
2019-05-13T20:02:42.022Z,99552.23
2019-05-13T20:05:13.927Z,99550.02
2019-05-13T20:07:46.026Z,99550.04
2019-05-13T20:10:18.149Z,99547.91
2019-05-13T20:12:51.309Z,99559.37
2019-05-13T20:15:23.606Z,99559.37
2019-05-13T20:17:55.639Z,99554.16
2019-05-13T20:20:27.685Z,99564.40
2019-05-13T20:23:01.392Z,99564.40
2019-05-13T20:25:33.633Z,99565.19
2019-05-13T20:28:05.702Z,99561.99
2019-05-13T20:30:37.913Z,99564.05
2019-05-13T20:33:11.950Z,99564.19
2019-05-13T20:35:43.942Z,99562.52
2019-05-13T20:38:16.086Z,99563.94
2019-05-13T20:40:48.090Z,99570.97
2019-05-13T20:43:22.514Z,99568.80
2019-05-13T20:45:54.255Z,99574.94
2019-05-13T20:48:26.272Z,99576.99
2019-05-13T20:50:58.297Z,99578.91
2019-05-13T20:53:31.082Z,99575.70
2019-05-13T20:56:03.260Z,99574.70
2019-05-13T20:58:35.289Z,99576.48
2019-05-13T21:01:07.327Z,99579.80
2019-05-13T21:03:41.875Z,99576.08
2019-05-13T21:06:13.272Z,99580.55
2019-05-13T21:08:45.308Z,99585.28
2019-05-13T21:11:17.327Z,99575.05
2019-05-13T21:13:51.607Z,99575.20
2019-05-13T21:16:23.204Z,99575.55
2019-05-13T21:18:55.206Z,99574.94
2019-05-13T21:21:27.193Z,99570.72
2019-05-13T21:24:01.412Z,99573.50
2019-05-13T21:26:33.087Z,99570.67
2019-05-13T21:29:05.115Z,99559.44
2019-05-13T21:31:37.081Z,99566.20
2019-05-13T21:34:09.111Z,99555.20
2019-05-13T21:36:41.356Z,99560.69
2019-05-13T21:39:13.410Z,99562.92
2019-05-13T21:41:45.454Z,99571.63
2019-05-13T21:44:17.489Z,99559.09
2019-05-13T21:46:51.461Z,99559.84
2019-05-13T21:49:23.379Z,99556.38
2019-05-13T21:51:55.367Z,99557.91
2019-05-13T21:54:27.412Z,99557.64
2019-05-13T21:56:59.430Z,99547.19
2019-05-13T21:59:32.075Z,99558.41
2019-05-13T22:02:04.957Z,99560.66
2019-05-13T22:04:36.982Z,99560.99
2019-05-13T22:07:08.977Z,99561.11
2019-05-13T22:09:42.247Z,99560.66
2019-05-13T22:12:14.396Z,99556.33
2019-05-13T22:14:46.396Z,99552.88
2019-05-13T22:17:18.405Z,99549.33
2019-05-13T22:19:51.274Z,99554.40
2019-05-13T22:22:23.401Z,99548.41
2019-05-13T22:24:55.412Z,99550.27
2019-05-13T22:27:27.465Z,99545.90
2019-05-13T22:30:01.327Z,99545.40
2019-05-13T22:32:33.363Z,99542.70
2019-05-13T22:35:05.536Z,99539.45
2019-05-13T22:37:37.520Z,99542.78
2019-05-13T22:40:11.229Z,99542.81
2019-05-13T22:42:43.367Z,99539.98
2019-05-13T22:45:16.973Z,99532.19
2019-05-13T22:47:48.981Z,99532.09
2019-05-13T22:50:21.811Z,99522.39
2019-05-13T22:52:53.966Z,99526.61
2019-05-13T22:55:25.916Z,99525.28
2019-05-13T22:57:57.921Z,99522.69
2019-05-13T23:00:31.718Z,99518.20
2019-05-13T23:03:03.884Z,99518.32
2019-05-13T23:05:35.872Z,99522.58
2019-05-13T23:08:07.875Z,99521.37
2019-05-13T23:10:41.942Z,99522.38
2019-05-13T23:13:13.766Z,99514.22
2019-05-13T23:15:45.747Z,99520.16
2019-05-13T23:18:17.771Z,99517.61
2019-05-13T23:20:51.609Z,99518.61
2019-05-13T23:23:23.672Z,99517.77
2019-05-13T23:25:57.027Z,99525.29
2019-05-13T23:28:29.345Z,99523.19
2019-05-13T23:31:01.828Z,99512.21
2019-05-13T23:33:34.042Z,99510.47
2019-05-13T23:36:06.018Z,99502.23
2019-05-13T23:38:38.025Z,99497.05
2019-05-13T23:41:11.492Z,99500.61
2019-05-13T23:43:43.691Z,99498.58
2019-05-13T23:46:15.666Z,99496.03
2019-05-13T23:48:47.639Z,99490.23
2019-05-13T23:51:21.508Z,99486.70
2019-05-13T23:53:53.526Z,99489.45
2019-05-13T23:56:25.501Z,99486.80
2019-05-13T23:58:57.491Z,99488.67
